Time;durP1;ratioP1;P1;durP2;ratioP2;P2;SDS_P1;SDS_P2;PMS_P1;PMS_P2;Temp;Humidity;BMP_temperature;BMP_pressure;BME280_temperature;BME280_humidity;BME280_pressure;Samples;Min_cycle;Max_cycle;Signal;HPM_P1;HPM_P2
2024/04/09 00:16:28;;;;;;;10.75;3.50;;;17.60;84.20;;;;;;5073623;28;20409;-87
2024/04/09 00:18:54;;;;;;;12.43;3.97;;;17.60;83.80;;;;;;5076051;28;20021;-87
2024/04/09 00:21:23;;;;;;;13.95;3.80;;;17.60;85.20;;;;;;5067478;28;20029;-87
2024/04/09 00:23:49;;;;;;;12.45;4.00;;;17.60;84.70;;;;;;5073457;28;20047;-87
2024/04/09 00:26:16;;;;;;;15.68;3.88;;;17.70;83.10;;;;;;5052956;28;20036;-86
2024/04/09 00:28:42;;;;;;;13.10;4.28;;;17.80;79.70;;;;;;5074559;28;20033;-86
2024/04/09 00:31:08;;;;;;;17.83;3.78;;;17.80;77.20;;;;;;5075631;28;20119;-86
2024/04/09 00:33:33;;;;;;;14.80;4.90;;;17.70;75.00;;;;;;5080070;28;20055;-87
2024/04/09 00:35:59;;;;;;;15.60;4.45;;;17.70;79.90;;;;;;5069985;28;20063;-86
2024/04/09 00:38:27;;;;;;;17.25;4.70;;;17.60;83.00;;;;;;5074086;28;20078;-86
2024/04/09 00:40:53;;;;;;;12.70;4.40;;;17.50;84.60;;;;;;5050834;28;20038;-86
2024/04/09 00:43:19;;;;;;;12.68;4.05;;;17.30;86.30;;;;;;5057327;28;20036;-86
2024/04/09 00:45:47;;;;;;;8.57;3.63;;;17.20;89.20;;;;;;5075382;28;20033;-87
2024/04/09 00:48:13;;;;;;;10.20;4.53;;;17.00;91.30;;;;;;5067581;28;20048;-89
2024/04/09 00:50:44;;;;;;;11.40;4.22;;;17.00;89.10;;;;;;5069576;28;20033;-87
2024/04/09 00:53:11;;;;;;;9.60;4.28;;;16.90;89.80;;;;;;5076043;28;20372;-86
2024/04/09 00:55:42;;;;;;;12.82;5.03;;;16.80;90.00;;;;;;5065810;28;20120;-87
2024/04/09 00:58:11;;;;;;;13.43;4.68;;;16.70;90.10;;;;;;5073080;28;20383;-86
2024/04/09 01:00:40;;;;;;;12.13;4.25;;;16.80;89.10;;;;;;5070173;28;20025;-87
2024/04/09 01:03:07;;;;;;;11.45;4.25;;;16.80;88.30;;;;;;5059688;28;20024;-87
2024/04/09 01:05:32;;;;;;;12.88;4.68;;;16.90;89.70;;;;;;5078988;28;20032;-88
2024/04/09 01:07:58;;;;;;;9.98;4.05;;;16.90;89.10;;;;;;5070780;28;20027;-85
2024/04/09 01:10:24;;;;;;;12.73;4.45;;;16.90;89.30;;;;;;5051206;28;20042;-87
2024/04/09 01:12:49;;;;;;;12.60;4.50;;;17.00;86.80;;;;;;5073296;28;20118;-86
2024/04/09 01:15:16;;;;;;;14.18;4.70;;;16.90;87.60;;;;;;5063365;28;20032;-88
2024/04/09 01:17:42;;;;;;;13.27;3.88;;;16.90;87.50;;;;;;5070998;28;20024;-90
2024/04/09 01:20:07;;;;;;;10.23;4.00;;;17.00;87.20;;;;;;5075719;28;20024;-88
2024/04/09 04:19:45;;;;;;;5.35;1.25;;;17.40;64.40;;;;;;6245879;22;20992;31
2024/04/09 04:22:10;;;;;;;3.53;1.15;;;17.30;64.00;;;;;;4953859;28;20086;-95
2024/04/09 04:24:36;;;;;;;4.88;0.98;;;17.30;64.50;;;;;;4979673;28;20041;-95
2024/04/09 04:27:02;;;;;;;4.57;1.05;;;17.20;64.00;;;;;;4981309;28;20102;-96
2024/04/09 04:29:27;;;;;;;8.40;1.55;;;17.20;64.30;;;;;;4980155;28;20091;-94
2024/04/09 04:31:53;;;;;;;6.80;1.20;;;17.20;64.70;;;;;;4981400;28;20023;-94
2024/04/09 04:34:19;;;;;;;4.55;1.42;;;17.20;65.30;;;;;;4981781;28;20022;-93
2024/04/09 04:36:45;;;;;;;5.65;1.38;;;17.20;65.30;;;;;;4985233;28;20112;-93
2024/04/09 04:39:11;;;;;;;7.78;1.35;;;17.20;66.20;;;;;;4981278;28;20022;-94
2024/04/09 04:44:12;;;;;;;5.60;1.40;;;17.20;66.90;;;;;;5315836;22;19955;-95
2024/04/09 04:46:38;;;;;;;5.85;1.80;;;17.10;67.70;;;;;;5037426;28;20481;-94
2024/04/09 04:49:03;;;;;;;3.28;1.25;;;17.10;68.30;;;;;;5020009;28;20129;-93
2024/04/09 04:51:29;;;;;;;2.65;0.80;;;17.00;68.50;;;;;;4997866;28;20026;-92
2024/04/09 04:53:57;;;;;;;6.57;1.25;;;17.00;69.50;;;;;;4988313;28;20052;-94
2024/04/09 04:56:23;;;;;;;3.65;1.10;;;17.00;69.60;;;;;;4893209;29;20069;-91
2024/04/09 04:58:49;;;;;;;3.90;1.55;;;16.90;70.00;;;;;;4821146;29;20057;-94
2024/04/09 05:01:15;;;;;;;5.68;1.23;;;16.90;71.00;;;;;;4609350;30;21215;-93
2024/04/09 05:03:40;;;;;;;4.90;1.50;;;16.80;72.10;;;;;;4570013;30;20416;-93
2024/04/09 05:09:17;;;;;;;4.78;1.80;;;16.70;73.60;;;;;;5127294;27;20408;-91
2024/04/09 05:11:50;;;;;;;5.82;1.05;;;16.60;77.10;;;;;;5107765;28;20115;-89
2024/04/09 05:14:28;;;;;;;9.90;1.48;;;16.50;78.20;;;;;;5093992;28;20041;-91
2024/04/09 05:16:54;;;;;;;5.00;1.00;;;16.40;79.90;;;;;;5076437;28;20021;-91
2024/04/09 05:19:20;;;;;;;5.53;1.52;;;16.40;80.60;;;;;;5089728;28;20029;-91
2024/04/09 05:21:52;;;;;;;4.93;1.40;;;16.40;81.40;;;;;;5086912;28;20021;-92
2024/04/09 05:24:22;;;;;;;8.23;2.20;;;16.30;82.70;;;;;;5083914;28;20024;-90
2024/04/09 05:26:49;;;;;;;3.97;1.67;;;16.20;83.10;;;;;;5084682;28;20044;-89
2024/04/09 05:29:15;;;;;;;6.13;2.78;;;16.20;83.40;;;;;;5081102;28;20013;-91
2024/04/09 05:31:53;;;;;;;3.40;1.27;;;16.20;83.40;;;;;;5082012;28;20036;-92
2024/04/09 05:34:19;;;;;;;5.00;1.33;;;16.20;84.60;;;;;;5078436;28;20029;-90
2024/04/09 05:36:45;;;;;;;7.07;1.38;;;16.10;84.70;;;;;;5080849;28;20025;-93
2024/04/09 05:39:11;;;;;;;5.78;2.00;;;16.10;84.70;;;;;;5066575;28;20024;-92
2024/04/09 05:41:38;;;;;;;3.60;1.23;;;16.20;84.50;;;;;;5067234;28;20151;-91
2024/04/09 05:44:04;;;;;;;4.85;1.38;;;16.20;85.20;;;;;;5083138;28;20025;-91
2024/04/09 05:46:52;;;;;;;5.40;2.10;;;16.20;85.30;;;;;;5079531;28;20029;-93
2024/04/09 06:05:20;;;;;;;6.68;1.55;;;16.20;85.20;;;;;;5039449;28;20050;-88
2024/04/09 06:07:46;;;;;;;7.95;1.45;;;16.10;86.40;;;;;;5032358;28;20037;-87
2024/04/09 06:10:15;;;;;;;5.32;1.17;;;16.10;86.80;;;;;;5043825;28;20014;-87
2024/04/09 06:12:40;;;;;;;4.47;1.20;;;15.90;85.90;;;;;;5031781;28;20028;-89
2024/04/09 06:15:06;;;;;;;9.23;1.60;;;15.90;86.30;;;;;;5033716;28;20057;-89
2024/04/09 06:17:33;;;;;;;10.15;2.13;;;15.70;85.40;;;;;;5024666;28;20022;-90
2024/04/09 06:19:59;;;;;;;5.00;2.47;;;15.60;85.60;;;;;;5028144;28;20411;-88
2024/04/09 06:22:25;;;;;;;7.50;1.00;;;15.60;86.20;;;;;;5019117;28;20030;-89
2024/04/09 06:24:51;;;;;;;2.47;1.15;;;15.40;85.60;;;;;;5009953;28;20030;-89
2024/04/09 06:27:16;;;;;;;4.18;1.95;;;15.30;87.30;;;;;;5009381;28;20040;-88
2024/04/09 06:29:42;;;;;;;2.85;0.73;;;15.30;86.10;;;;;;5028825;28;20101;-89
2024/04/09 06:32:11;;;;;;;6.40;1.40;;;15.30;86.80;;;;;;5022329;28;20350;-88
2024/04/09 06:34:37;;;;;;;11.00;2.80;;;15.20;86.60;;;;;;5023868;28;20033;-88
2024/04/09 06:37:03;;;;;;;4.47;1.55;;;15.10;87.10;;;;;;5026909;28;20022;-91
2024/04/09 06:39:28;;;;;;;4.78;1.40;;;15.10;87.70;;;;;;5027364;28;20042;-88
2024/04/09 06:41:55;;;;;;;1.85;0.80;;;15.00;88.10;;;;;;5026831;28;20097;-89
2024/04/09 06:44:21;;;;;;;1.55;0.88;;;14.90;88.40;;;;;;5015359;28;20128;-89
2024/04/09 06:46:47;;;;;;;64.70;4.53;;;14.90;88.30;;;;;;5044052;28;20017;-88
2024/04/09 06:49:12;;;;;;;6.55;0.85;;;14.80;82.70;;;;;;5046452;28;20229;-88
2024/04/09 06:51:38;;;;;;;8.50;0.80;;;14.50;81.70;;;;;;5023532;28;20054;-89
2024/04/09 06:54:03;;;;;;;0.93;0.50;;;14.20;80.30;;;;;;5003729;28;20494;-88
2024/04/09 06:56:29;;;;;;;5.38;0.70;;;14.10;81.40;;;;;;5026667;28;20043;-88
2024/04/09 06:58:55;;;;;;;2.75;0.93;;;14.00;79.90;;;;;;5034693;28;20117;-88
2024/04/09 07:01:21;;;;;;;3.78;0.88;;;13.90;79.30;;;;;;5025721;28;20045;-89
2024/04/09 07:03:48;;;;;;;6.68;0.52;;;13.70;80.10;;;;;;5022478;28;20050;-91
2024/04/09 07:06:14;;;;;;;1.27;0.60;;;13.70;79.10;;;;;;5020977;28;20033;-90
2024/04/09 07:08:39;;;;;;;2.55;0.70;;;13.60;79.50;;;;;;5026305;28;20094;-91
2024/04/09 07:11:05;;;;;;;3.58;0.70;;;13.60;80.70;;;;;;5024725;28;20022;-90
2024/04/09 07:13:31;;;;;;;1.50;0.50;;;13.50;79.90;;;;;;5001145;28;20030;-90
2024/04/09 07:15:58;;;;;;;1.85;0.75;;;13.50;80.70;;;;;;5012928;28;20038;-89
2024/04/09 07:18:24;;;;;;;2.00;0.65;;;13.40;80.40;;;;;;5017649;28;20024;-88
2024/04/09 07:20:50;;;;;;;3.75;0.60;;;13.40;77.50;;;;;;5021948;28;20070;-89
2024/04/09 07:23:16;;;;;;;10.35;1.08;;;13.30;78.10;;;;;;5019105;28;20302;-90
2024/04/09 07:25:41;;;;;;;5.20;1.80;;;13.10;77.70;;;;;;5005650;28;20395;-89
2024/04/09 07:28:07;;;;;;;0.73;0.70;;;13.10;75.70;;;;;;5008476;28;21474;-89
2024/04/09 07:30:36;;;;;;;9.73;1.33;;;13.10;75.50;;;;;;5004497;28;20030;-89
2024/04/09 07:33:02;;;;;;;1.23;1.17;;;13.00;72.80;;;;;;5004378;28;20438;-89
2024/04/09 07:35:28;;;;;;;4.65;0.85;;;13.00;73.40;;;;;;5007342;28;20030;-90
2024/04/09 07:37:54;;;;;;;3.83;0.77;;;13.00;72.20;;;;;;5007993;28;20115;-89
2024/04/09 07:40:20;;;;;;;4.63;0.80;;;13.00;70.80;;;;;;4989052;28;20047;-89
2024/04/09 07:42:46;;;;;;;4.10;1.38;;;13.00;73.60;;;;;;4987087;28;20465;-89
2024/04/09 07:45:11;;;;;;;2.92;0.40;;;12.90;74.80;;;;;;5013643;28;20038;-89
2024/04/09 07:47:37;;;;;;;0.63;0.50;;;12.90;72.40;;;;;;5014542;28;20022;-90
2024/04/09 07:50:09;;;;;;;2.25;0.65;;;12.90;70.70;;;;;;5005622;28;20057;-88
2024/04/09 07:52:39;;;;;;;0.63;0.60;;;12.90;73.80;;;;;;5018314;28;20029;-89
2024/04/09 07:55:07;;;;;;;3.67;1.00;;;12.90;74.90;;;;;;5018421;28;20112;-89
2024/04/09 07:57:35;;;;;;;2.35;0.73;;;12.80;75.00;;;;;;5011014;28;20721;-89
2024/04/09 08:00:00;;;;;;;1.40;0.65;;;12.80;74.90;;;;;;5005952;28;20025;-89
2024/04/09 08:02:26;;;;;;;2.10;1.42;;;12.80;75.10;;;;;;5011363;28;20076;-89
2024/04/09 08:04:51;;;;;;;1.75;0.98;;;12.80;75.50;;;;;;5009634;28;20094;-90
2024/04/09 08:07:17;;;;;;;1.45;1.02;;;12.70;75.10;;;;;;5005506;28;20033;-89
2024/04/09 08:09:43;;;;;;;2.38;0.40;;;12.80;75.70;;;;;;5009801;28;20075;-89
2024/04/09 08:12:09;;;;;;;2.97;0.55;;;12.70;75.20;;;;;;5007375;28;20091;-89
2024/04/09 08:14:34;;;;;;;3.25;1.13;;;12.60;76.50;;;;;;5004067;28;20102;-88
2024/04/09 08:17:00;;;;;;;2.47;0.93;;;12.60;75.30;;;;;;5006404;28;20091;-90
2024/04/09 08:19:27;;;;;;;7.15;1.48;;;12.60;73.70;;;;;;5005406;28;20030;-89
2024/04/09 08:21:54;;;;;;;;;;;12.40;71.30;;;;;;5007829;28;20025;-89
2024/04/09 08:24:20;;;;;;;4.80;1.05;;;12.30;70.50;;;;;;5004715;28;19921;-89
2024/04/09 08:26:46;;;;;;;2.28;0.88;;;12.20;70.50;;;;;;5009237;28;20048;-89
2024/04/09 08:29:16;;;;;;;2.20;0.90;;;12.20;71.50;;;;;;5002847;28;20026;-89
2024/04/09 08:31:45;;;;;;;0.88;0.75;;;12.00;70.60;;;;;;5007947;28;20049;-89
2024/04/09 08:34:11;;;;;;;1.48;1.13;;;12.00;71.90;;;;;;4990670;28;20049;-89
2024/04/09 08:36:37;;;;;;;1.08;0.50;;;11.90;73.00;;;;;;4990886;28;20167;-91
2024/04/09 08:39:04;;;;;;;7.65;1.45;;;11.90;72.90;;;;;;5003923;28;20034;-87
2024/04/09 08:41:30;;;;;;;6.68;1.05;;;11.80;74.20;;;;;;5007739;28;20037;-89
2024/04/09 08:44:00;;;;;;;9.27;1.25;;;11.90;75.20;;;;;;5011897;28;20039;-89
2024/04/09 08:46:31;;;;;;;3.08;0.85;;;11.50;75.50;;;;;;5010663;28;20026;-88
2024/04/09 08:48:57;;;;;;;1.10;0.75;;;11.60;75.10;;;;;;4984825;28;20633;-89
2024/04/09 08:51:23;;;;;;;1.85;0.90;;;11.50;76.40;;;;;;5006837;28;20086;-87
2024/04/09 08:53:49;;;;;;;3.13;1.05;;;11.40;76.30;;;;;;4989762;28;20052;-89
2024/04/09 08:56:15;;;;;;;1.67;0.73;;;11.50;76.70;;;;;;5005670;28;20038;-91
2024/04/09 08:58:41;;;;;;;4.10;0.88;;;11.40;77.10;;;;;;4985706;28;20033;-89
2024/04/09 09:01:06;;;;;;;3.33;1.13;;;11.30;77.50;;;;;;5007144;28;20399;-89
2024/04/09 09:03:32;;;;;;;1.73;0.85;;;11.30;77.00;;;;;;5005354;28;20040;-90
2024/04/09 09:06:03;;;;;;;3.22;0.80;;;11.40;77.00;;;;;;5008848;28;20142;-89
2024/04/09 09:08:42;;;;;;;2.25;1.50;;;11.40;76.50;;;;;;5008925;28;20333;-88
2024/04/09 09:11:09;;;;;;;1.55;0.50;;;11.40;78.60;;;;;;5008324;28;20029;-87
2024/04/09 09:13:35;;;;;;;3.05;0.63;;;11.40;78.40;;;;;;5005104;28;20010;-90
2024/04/09 09:16:02;;;;;;;1.77;1.00;;;11.50;79.00;;;;;;5027461;28;20397;-88
2024/04/09 09:18:28;;;;;;;5.25;1.50;;;11.40;77.20;;;;;;5013976;28;20246;-88
2024/04/09 09:21:00;;;;;;;1.67;0.73;;;11.10;78.70;;;;;;5012424;28;20034;-88
2024/04/09 09:23:26;;;;;;;1.83;0.60;;;11.10;78.70;;;;;;4988501;28;20132;-89
2024/04/09 09:25:52;;;;;;;1.50;1.23;;;11.20;75.90;;;;;;5009821;28;20131;-88
2024/04/09 09:28:21;;;;;;;2.30;0.77;;;11.10;76.60;;;;;;5003537;28;20030;-88
2024/04/09 09:30:47;;;;;;;1.65;0.93;;;11.20;76.20;;;;;;5004434;28;20045;-88
2024/04/09 09:33:29;;;;;;;1.23;0.88;;;11.30;75.70;;;;;;5010404;28;20037;-88
2024/04/09 09:35:56;;;;;;;2.50;1.30;;;11.20;76.70;;;;;;5011298;28;20022;-88
2024/04/09 09:38:23;;;;;;;;;;;11.00;79.70;;;;;;5005038;28;20025;-89
2024/04/09 09:40:50;;;;;;;2.17;0.77;;;11.00;78.70;;;;;;5003954;28;19924;-89
2024/04/09 09:43:17;;;;;;;2.30;1.02;;;11.00;79.00;;;;;;4991541;28;20029;-90
2024/04/09 09:45:44;;;;;;;1.90;0.82;;;10.80;79.30;;;;;;5007853;28;20030;-87
2024/04/09 09:48:11;;;;;;;3.58;1.25;;;10.90;81.20;;;;;;5001174;28;20148;-89
2024/04/09 09:50:40;;;;;;;7.97;1.13;;;10.80;78.70;;;;;;5011189;28;20037;-88
2024/04/09 09:53:07;;;;;;;2.83;0.90;;;10.80;80.70;;;;;;4995618;28;20029;-89
2024/04/09 09:55:35;;;;;;;1.98;0.95;;;10.70;81.20;;;;;;4996508;28;20037;-89
2024/04/09 09:58:03;;;;;;;4.70;1.23;;;10.80;80.50;;;;;;5009661;28;20100;-91
2024/04/09 10:00:31;;;;;;;1.83;1.35;;;10.60;82.10;;;;;;5015524;28;20041;-91
2024/04/09 10:02:57;;;;;;;3.35;0.93;;;10.60;80.50;;;;;;4991648;28;20030;-90
2024/04/09 10:05:23;;;;;;;3.33;0.80;;;10.60;82.00;;;;;;5010578;28;20075;-91
2024/04/09 10:07:49;;;;;;;2.17;0.88;;;10.60;81.70;;;;;;5008623;28;20025;-91
2024/04/09 10:10:25;;;;;;;1.77;0.60;;;10.60;82.20;;;;;;4996917;28;20053;-89
2024/04/09 10:12:53;;;;;;;2.47;1.20;;;10.70;82.00;;;;;;5010255;28;20049;-89
2024/04/09 10:15:25;;;;;;;2.25;1.02;;;10.60;79.60;;;;;;5010338;28;20113;-92
2024/04/09 10:18:04;;;;;;;2.95;1.02;;;10.50;81.70;;;;;;5010169;28;20030;-91
2024/04/09 10:20:31;;;;;;;1.20;0.95;;;10.50;82.30;;;;;;5000092;28;20048;-89
2024/04/09 10:23:01;;;;;;;1.83;0.88;;;10.50;82.10;;;;;;5015796;28;20029;-90
2024/04/09 10:25:37;;;;;;;1.30;0.57;;;10.60;82.60;;;;;;5015330;28;20445;-90
2024/04/09 10:28:18;;;;;;;1.30;1.20;;;10.60;81.50;;;;;;5014511;28;20029;-91
2024/04/09 10:30:45;;;;;;;4.90;0.77;;;10.50;82.20;;;;;;5000271;28;20030;-90
2024/04/09 10:33:11;;;;;;;1.60;0.57;;;10.60;81.40;;;;;;5016909;28;20033;-89
2024/04/09 10:35:43;;;;;;;3.58;1.38;;;10.50;81.60;;;;;;5015069;28;20025;-91
2024/04/09 10:38:10;;;;;;;6.38;0.88;;;10.40;83.10;;;;;;5015246;28;20041;-90
2024/04/09 10:40:36;;;;;;;0.85;0.82;;;10.30;82.20;;;;;;5017162;28;20029;-90
2024/04/09 10:43:05;;;;;;;1.40;1.25;;;10.30;81.90;;;;;;5014485;28;20487;-89
2024/04/09 10:45:32;;;;;;;3.75;1.25;;;10.20;82.50;;;;;;5015840;28;20042;-92
2024/04/09 10:48:00;;;;;;;3.75;2.20;;;10.20;82.80;;;;;;5009978;28;20465;-91
2024/04/09 10:50:25;;;;;;;1.15;0.70;;;10.20;83.40;;;;;;5014970;28;20105;-89
2024/04/09 10:52:52;;;;;;;1.88;0.68;;;10.20;83.60;;;;;;5013998;28;20140;-90
2024/04/09 10:55:17;;;;;;;0.82;0.80;;;10.10;84.60;;;;;;5017347;28;20093;-93
2024/04/09 10:57:51;;;;;;;2.97;1.00;;;10.10;84.40;;;;;;5012990;28;20041;-89
2024/04/09 11:00:17;;;;;;;1.50;1.33;;;10.10;84.90;;;;;;5013097;28;20025;-89
2024/04/09 11:02:44;;;;;;;1.83;1.63;;;10.20;85.70;;;;;;5028699;28;20100;-90
2024/04/09 11:05:11;;;;;;;2.65;1.08;;;10.20;84.70;;;;;;5014576;28;20037;-91
2024/04/09 11:07:41;;;;;;;2.30;0.85;;;10.20;85.00;;;;;;5012622;28;20025;-89
2024/04/09 11:10:12;;;;;;;1.50;0.82;;;10.20;85.60;;;;;;5013638;28;20025;-89
2024/04/09 11:12:44;;;;;;;2.05;0.88;;;10.20;84.60;;;;;;5015992;28;20029;-91
2024/04/09 11:15:10;;;;;;;4.22;0.73;;;10.20;84.70;;;;;;4997552;28;20032;-91
2024/04/09 11:17:39;;;;;;;1.60;0.77;;;10.20;82.80;;;;;;5010569;28;20045;-89
2024/04/09 11:20:11;;;;;;;2.63;1.55;;;10.20;82.80;;;;;;5015742;28;20195;-91
2024/04/09 11:22:43;;;;;;;1.50;0.73;;;10.30;83.50;;;;;;5017600;28;20025;-91
2024/04/09 11:25:12;;;;;;;2.85;1.15;;;10.30;83.30;;;;;;5017907;28;20670;-89
2024/04/09 11:27:42;;;;;;;4.05;2.22;;;10.30;84.00;;;;;;4992928;28;20452;-89
2024/04/09 11:30:11;;;;;;;1.25;0.80;;;10.30;83.40;;;;;;4998933;28;20022;-91
2024/04/09 11:32:39;;;;;;;1.70;0.95;;;10.30;82.90;;;;;;5016322;28;20022;-91
2024/04/09 11:35:18;;;;;;;1.55;0.75;;;10.30;83.10;;;;;;5018970;28;20025;-89
2024/04/09 11:37:52;;;;;;;1.23;0.90;;;10.20;83.40;;;;;;5013463;28;20066;-89
2024/04/09 11:40:26;;;;;;;3.00;0.88;;;10.40;84.00;;;;;;5031878;28;20081;-91
2024/04/09 11:42:55;;;;;;;2.42;1.00;;;10.50;82.80;;;;;;5013901;28;20038;-91
2024/04/09 11:45:27;;;;;;;1.98;0.57;;;10.50;81.20;;;;;;4999454;28;20063;-89
2024/04/09 11:47:53;;;;;;;1.48;0.77;;;10.50;82.10;;;;;;4991338;28;21208;-91
2024/04/09 11:50:19;;;;;;;1.88;0.90;;;10.50;81.00;;;;;;4995087;28;20030;-89
2024/04/09 11:52:45;;;;;;;1.95;0.93;;;10.50;81.30;;;;;;4997363;28;20022;-90
2024/04/09 11:55:11;;;;;;;1.05;0.95;;;10.60;81.20;;;;;;4993854;28;20044;-90
2024/04/09 11:57:37;;;;;;;0.55;0.55;;;10.60;79.70;;;;;;4971096;28;20034;-90
2024/04/09 12:00:04;;;;;;;1.02;0.82;;;10.60;80.00;;;;;;4992353;28;20577;-91
2024/04/09 12:02:30;;;;;;;2.50;1.40;;;10.70;80.30;;;;;;4973286;28;20057;-90
2024/04/09 12:04:56;;;;;;;1.13;1.00;;;10.60;79.20;;;;;;4990779;28;20042;-90
2024/04/09 12:07:22;;;;;;;0.50;0.50;;;10.60;80.30;;;;;;4994140;28;20026;-91
2024/04/09 12:09:48;;;;;;;2.78;0.90;;;10.70;80.20;;;;;;4998921;28;20437;-89
2024/04/09 12:12:15;;;;;;;0.88;0.60;;;10.70;80.50;;;;;;4996609;28;20034;-90
2024/04/09 12:14:41;;;;;;;0.88;0.88;;;10.70;79.50;;;;;;4995203;28;20026;-89
2024/04/09 12:17:07;;;;;;;5.90;0.98;;;10.70;79.70;;;;;;4996208;28;20046;-92
2024/04/09 12:19:35;;;;;;;0.77;0.68;;;10.70;80.30;;;;;;4991636;28;20030;-89
2024/04/09 12:22:01;;;;;;;4.03;0.88;;;10.60;79.60;;;;;;4995524;28;20091;-91
2024/04/09 12:24:27;;;;;;;3.40;0.68;;;10.60;79.80;;;;;;4985025;28;20085;-90
2024/04/09 12:26:57;;;;;;;2.03;0.70;;;10.60;81.30;;;;;;5003296;28;20863;-87
2024/04/09 12:29:22;;;;;;;1.00;0.70;;;10.60;79.50;;;;;;5000255;28;20053;-89
2024/04/09 12:31:49;;;;;;;0.98;0.98;;;10.60;79.40;;;;;;5005296;28;20014;-91
2024/04/09 12:34:15;;;;;;;0.65;0.50;;;10.70;77.50;;;;;;5002561;28;20084;-92
2024/04/09 12:36:41;;;;;;;1.88;0.80;;;10.70;76.60;;;;;;5001049;28;20034;-90
2024/04/09 12:39:07;;;;;;;0.90;0.60;;;10.70;77.10;;;;;;4983786;28;20041;-89
2024/04/09 12:41:33;;;;;;;1.88;0.93;;;10.70;77.50;;;;;;5003661;28;20045;-89
2024/04/09 12:43:59;;;;;;;2.08;0.90;;;10.80;76.50;;;;;;4995075;28;20201;-89
2024/04/09 12:46:25;;;;;;;2.20;1.25;;;10.80;75.20;;;;;;4994525;28;20463;-90
2024/04/09 12:48:51;;;;;;;1.48;1.00;;;10.90;74.20;;;;;;5000229;28;20034;-89
2024/04/09 12:51:17;;;;;;;1.17;0.90;;;10.80;74.10;;;;;;4995736;28;20050;-90
2024/04/09 12:53:43;;;;;;;1.52;1.15;;;10.90;75.20;;;;;;4994827;28;20040;-90
2024/04/09 12:56:09;;;;;;;1.73;0.70;;;11.00;74.20;;;;;;4996667;28;20079;-91
2024/04/09 12:58:35;;;;;;;1.92;0.82;;;11.00;74.70;;;;;;4991885;28;20116;-88
2024/04/09 13:01:01;;;;;;;1.40;0.68;;;11.10;75.10;;;;;;4994107;28;20026;-93
2024/04/09 13:03:27;;;;;;;2.38;0.95;;;11.20;74.10;;;;;;4994454;28;20033;-90
2024/04/09 13:05:53;;;;;;;5.78;0.95;;;11.10;74.30;;;;;;4990780;28;20041;-89
2024/04/09 13:08:18;;;;;;;4.72;1.00;;;10.90;73.70;;;;;;4993820;28;20667;-94
2024/04/09 13:10:44;;;;;;;1.70;0.65;;;10.90;72.60;;;;;;4998487;28;20492;-90
2024/04/09 13:13:11;;;;;;;2.25;0.63;;;10.80;72.80;;;;;;4976520;28;20045;-89
2024/04/09 13:15:37;;;;;;;1.38;1.00;;;10.90;73.90;;;;;;4978737;28;20109;-92
2024/04/09 13:18:05;;;;;;;1.65;1.00;;;11.00;74.10;;;;;;4993913;28;20033;-90
2024/04/09 13:20:31;;;;;;;2.22;1.00;;;11.00;72.50;;;;;;4996236;28;20053;-90
2024/04/09 13:22:57;;;;;;;1.33;0.80;;;11.00;73.00;;;;;;4992132;28;20113;-89
2024/04/09 13:25:23;;;;;;;1.00;0.60;;;11.00;73.20;;;;;;4978602;28;20069;-91
2024/04/09 13:27:49;;;;;;;0.70;0.63;;;11.00;74.10;;;;;;4972471;28;20033;-92
2024/04/09 13:30:14;;;;;;;1.38;0.82;;;10.90;74.40;;;;;;4996706;28;20038;-90
2024/04/09 13:32:40;;;;;;;2.85;1.08;;;10.90;74.70;;;;;;5002907;28;20023;-90
2024/04/09 13:35:06;;;;;;;1.40;0.90;;;11.00;74.30;;;;;;5002458;28;20100;-91
2024/04/09 13:37:37;;;;;;;1.77;0.80;;;11.00;75.00;;;;;;4994073;28;20031;-89
2024/04/09 13:40:03;;;;;;;1.05;0.77;;;11.00;75.40;;;;;;4993942;28;20053;-91
2024/04/09 13:42:39;;;;;;;1.83;1.63;;;11.00;76.00;;;;;;4996422;28;20038;-89
2024/04/09 13:45:05;;;;;;;1.38;1.02;;;11.00;76.20;;;;;;4999488;28;20094;-92
2024/04/09 13:47:31;;;;;;;2.28;2.15;;;11.10;75.80;;;;;;4992378;28;20610;-89
2024/04/09 13:49:57;;;;;;;0.93;0.82;;;11.10;76.50;;;;;;4997077;28;20090;-91
2024/04/09 13:52:23;;;;;;;3.80;0.77;;;11.10;76.20;;;;;;4998059;28;20090;-89
2024/04/09 13:54:49;;;;;;;1.17;0.95;;;11.20;76.40;;;;;;4991854;28;20061;-89
2024/04/09 13:57:15;;;;;;;1.55;1.30;;;11.20;76.40;;;;;;4996218;28;20082;-90
2024/04/09 13:59:41;;;;;;;0.65;0.60;;;11.20;75.80;;;;;;4997279;28;20067;-90
2024/04/09 14:02:16;;;;;;;2.00;0.88;;;11.30;75.80;;;;;;4980458;28;20056;-90
2024/04/09 14:04:45;;;;;;;1.15;0.77;;;11.30;76.80;;;;;;5001256;28;20054;-91
2024/04/09 14:07:11;;;;;;;2.83;1.15;;;11.30;75.20;;;;;;4998365;28;20043;-92
2024/04/09 14:09:43;;;;;;;1.98;0.50;;;11.30;75.50;;;;;;5011314;28;20061;-89
2024/04/09 14:12:12;;;;;;;2.33;0.93;;;11.40;75.60;;;;;;5000197;28;20527;-90
2024/04/09 14:14:38;;;;;;;1.92;0.80;;;11.50;75.00;;;;;;4997448;28;20034;-89
2024/04/09 14:17:04;;;;;;;3.17;0.95;;;11.40;74.30;;;;;;4998537;28;20435;-92
2024/04/09 14:19:33;;;;;;;2.35;0.90;;;11.40;75.40;;;;;;4974292;28;20033;-88
2024/04/09 14:21:59;;;;;;;1.23;0.63;;;11.40;74.10;;;;;;4995625;28;20037;-89
2024/04/09 14:24:26;;;;;;;1.58;1.33;;;11.30;75.20;;;;;;5002215;28;20034;-93
2024/04/09 14:26:51;;;;;;;7.53;1.13;;;11.40;75.00;;;;;;4982209;28;20041;-89
2024/04/09 14:29:17;;;;;;;0.60;0.50;;;11.30;77.00;;;;;;4994162;28;20463;-89
2024/04/09 14:31:43;;;;;;;1.80;0.90;;;11.40;76.30;;;;;;4995659;28;20631;-90
2024/04/09 14:34:08;;;;;;;2.35;0.80;;;11.40;76.40;;;;;;5005097;28;20562;-92
2024/04/09 14:36:34;;;;;;;2.35;0.88;;;11.40;77.10;;;;;;4981046;28;20026;-90
2024/04/09 14:39:02;;;;;;;2.35;1.83;;;11.40;77.90;;;;;;4999604;28;20431;-89
2024/04/09 14:41:28;;;;;;;1.75;0.80;;;11.30;78.10;;;;;;4978437;28;20365;-90
2024/04/09 14:43:54;;;;;;;1.55;1.15;;;11.30;78.10;;;;;;4995046;28;20064;-91
2024/04/09 14:46:26;;;;;;;1.08;1.02;;;11.20;79.30;;;;;;5002259;28;20072;-90
2024/04/09 14:48:54;;;;;;;1.52;1.00;;;11.30;79.90;;;;;;5002942;28;20072;-90
2024/04/09 14:51:20;;;;;;;2.15;1.50;;;11.30;79.60;;;;;;4995712;28;20033;-89
2024/04/09 14:53:45;;;;;;;3.95;1.27;;;11.30;80.40;;;;;;4990823;28;21168;-89
2024/04/09 14:56:11;;;;;;;1.63;0.82;;;11.30;79.80;;;;;;4997297;28;20042;-89
2024/04/09 14:58:37;;;;;;;1.42;0.75;;;11.20;79.40;;;;;;4997791;28;20038;-90
2024/04/09 15:01:03;;;;;;;2.03;0.70;;;11.30;79.90;;;;;;4992741;28;20030;-89
2024/04/09 15:03:33;;;;;;;1.75;1.52;;;11.30;77.60;;;;;;4996449;28;20594;-89
2024/04/09 15:06:00;;;;;;;3.30;0.85;;;11.20;76.70;;;;;;5000949;28;20508;-93
2024/04/09 15:08:28;;;;;;;3.35;1.30;;;11.20;77.30;;;;;;4994383;28;20026;-88
2024/04/09 15:11:05;;;;;;;1.90;1.25;;;11.30;77.00;;;;;;4973389;28;20029;-90
2024/04/09 15:13:31;;;;;;;1.63;1.13;;;11.10;76.90;;;;;;4992715;28;20034;-91
2024/04/09 15:15:58;;;;;;;1.50;1.00;;;11.30;78.00;;;;;;4999880;28;20541;-88
2024/04/09 15:18:25;;;;;;;1.80;0.70;;;11.30;77.00;;;;;;4995890;28;20042;-88
2024/04/09 15:20:51;;;;;;;1.38;1.00;;;11.40;77.50;;;;;;4978228;28;20069;-88
2024/04/09 15:23:18;;;;;;;2.72;1.20;;;11.40;77.20;;;;;;4999051;28;20086;-87
2024/04/09 15:25:49;;;;;;;2.33;2.10;;;11.40;76.10;;;;;;4996390;28;20389;-88
2024/04/09 15:28:18;;;;;;;1.08;0.98;;;11.40;76.20;;;;;;4988301;28;20045;-88
2024/04/09 15:30:51;;;;;;;1.60;1.33;;;11.40;76.50;;;;;;4974562;28;20085;-88
2024/04/09 15:33:17;;;;;;;3.35;1.80;;;11.50;76.60;;;;;;4992096;28;20110;-89
2024/04/09 15:36:11;;;;;;;3.83;1.13;;;11.50;76.60;;;;;;4974142;28;20125;-91
2024/04/09 15:38:37;;;;;;;2.65;1.00;;;11.40;75.80;;;;;;4988767;28;20042;-89
2024/04/09 15:41:03;;;;;;;1.38;0.63;;;11.40;76.00;;;;;;4974898;28;20168;-89
2024/04/09 15:43:30;;;;;;;2.92;0.90;;;11.40;74.80;;;;;;4991372;28;20034;-89
2024/04/09 15:45:55;;;;;;;3.05;1.23;;;11.30;74.40;;;;;;4990496;28;20595;-88
2024/04/09 15:48:22;;;;;;;3.45;1.08;;;11.30;75.20;;;;;;4970650;28;20036;-88
2024/04/09 15:50:54;;;;;;;5.28;1.00;;;11.30;74.90;;;;;;4993670;28;20033;-90
2024/04/09 15:53:28;;;;;;;3.38;1.13;;;11.30;74.90;;;;;;4979264;28;20053;-93
2024/04/09 15:56:18;;;;;;;1.70;1.48;;;11.20;75.40;;;;;;5013583;23;21509;-90
2024/04/09 15:58:44;;;;;;;2.15;1.35;;;11.20;74.80;;;;;;5031446;28;20112;-90
2024/04/09 16:01:17;;;;;;;1.65;1.10;;;11.20;75.30;;;;;;5029353;28;20071;-91
2024/04/09 16:03:45;;;;;;;2.45;1.10;;;11.20;75.10;;;;;;5015416;28;20045;-94
2024/04/09 16:06:14;;;;;;;2.38;1.98;;;11.10;75.10;;;;;;5030798;28;20501;-90
2024/04/09 16:08:40;;;;;;;2.15;1.15;;;11.20;75.50;;;;;;5028945;28;20087;-91
2024/04/09 16:11:10;;;;;;;2.03;0.98;;;11.20;75.10;;;;;;5024088;28;20029;-92
2024/04/09 16:13:39;;;;;;;1.45;0.90;;;11.20;75.30;;;;;;5018788;28;20128;-92
2024/04/09 16:16:15;;;;;;;4.97;1.23;;;11.20;73.30;;;;;;5009745;28;20100;-91
2024/04/09 16:18:41;;;;;;;3.00;0.93;;;11.20;73.10;;;;;;5045880;28;20028;-91
2024/04/09 16:21:06;;;;;;;1.45;0.82;;;11.20;73.40;;;;;;5024468;28;20030;-92